Time;durP1;ratioP1;P1;durP2;ratioP2;P2;SDS_P1;SDS_P2;PMS_P1;PMS_P2;Temp;Humidity;BMP_temperature;BMP_pressure;BME280_temperature;BME280_humidity;BME280_pressure;Samples;Min_cycle;Max_cycle;Signal;HPM_P1;HPM_P2
2021/12/23 00:00:02;;;;;;;6.30;4.03;;;;;;;;;;5104029;28;20032;-60
2021/12/23 00:02:27;;;;;;;4.97;3.55;;;;;;;;;;5103663;28;20042;-62
2021/12/23 00:04:52;;;;;;;5.40;3.60;;;;;;;;;;5105957;28;20193;-63
2021/12/23 00:07:17;;;;;;;8.55;3.90;;;;;;;;;;5101285;28;20074;-63
2021/12/23 00:10:04;;;;;;;7.10;3.40;;;;;;;;;;5104803;28;20889;-61
2021/12/23 00:12:29;;;;;;;4.32;3.45;;;;;;;;;;5104898;28;20056;-66
2021/12/23 00:14:55;;;;;;;5.85;3.53;;;;;;;;;;5103166;28;20511;-63
2021/12/23 00:17:52;;;;;;;5.95;3.15;;;;;;;;;;5104545;28;20058;-62
2021/12/23 00:25:21;;;;;;;5.47;3.72;;;;;;;;;;5104117;28;20050;-61
2021/12/23 00:27:46;;;;;;;5.45;3.42;;;;;;;;;;5103285;28;20040;-63
2021/12/23 00:30:11;;;;;;;6.30;3.72;;;;;;;;;;5099281;27;20040;-62
2021/12/23 00:32:37;;;;;;;4.88;3.30;;;;;;;;;;5094189;28;20042;-62
2021/12/23 00:35:03;;;;;;;8.15;4.40;;;;;;;;;;5094548;28;20025;-62
2021/12/23 00:37:36;;;;;;;7.07;3.75;;;;;;;;;;5093949;28;20073;-62
2021/12/23 00:40:01;;;;;;;6.43;3.40;;;;;;;;;;5093779;28;20024;-63
2021/12/23 00:42:26;;;;;;;5.28;3.42;;;;;;;;;;5093902;28;20028;-62
2021/12/23 00:44:51;;;;;;;6.82;4.25;;;;;;;;;;5094019;28;20025;-62
2021/12/23 00:47:17;;;;;;;5.53;3.67;;;;;;;;;;5093538;28;20024;-62
2021/12/23 00:49:42;;;;;;;6.00;4.43;;;;;;;;;;5093994;28;20040;-62
2021/12/23 00:52:08;;;;;;;8.27;4.85;;;;;;;;;;5093720;28;20508;-62
2021/12/23 00:54:34;;;;;;;5.20;3.38;;;;;;;;;;5093675;28;20035;-62
2021/12/23 00:56:59;;;;;;;6.60;3.70;;;;;;;;;;5093487;28;20031;-62
2021/12/23 00:59:24;;;;;;;7.45;3.95;;;;;;;;;;5093245;28;20505;-62
2021/12/23 01:01:50;;;;;;;7.93;4.45;;;;;;;;;;5094125;28;20046;-62
2021/12/23 01:04:15;;;;;;;5.63;3.85;;;;;;;;;;5087865;28;20439;-62
2021/12/23 01:06:40;;;;;;;6.10;3.88;;;;;;;;;;5073231;28;20044;-62
2021/12/23 01:09:06;;;;;;;7.68;4.05;;;;;;;;;;5086393;28;20040;-62
2021/12/23 01:11:31;;;;;;;6.55;3.95;;;;;;;;;;5092623;28;20435;-62
2021/12/23 01:14:25;;;;;;;5.68;3.88;;;;;;;;;;5093509;28;20032;-62
2021/12/23 01:16:50;;;;;;;6.95;3.95;;;;;;;;;;5093488;28;20054;-62
2021/12/23 01:19:16;;;;;;;7.03;4.45;;;;;;;;;;5093552;28;20032;-62
2021/12/23 01:21:41;;;;;;;6.03;4.00;;;;;;;;;;5093263;28;20082;-62
2021/12/23 01:24:09;;;;;;;9.90;4.03;;;;;;;;;;5093427;28;20028;-62
2021/12/23 01:26:34;;;;;;;6.40;4.18;;;;;;;;;;5093011;28;20035;-61
2021/12/23 01:29:00;;;;;;;7.47;4.22;;;;;;;;;;5091535;28;20048;-62
2021/12/23 01:31:26;;;;;;;7.20;4.57;;;;;;;;;;5092824;28;20029;-62
2021/12/23 01:33:52;;;;;;;9.52;4.30;;;;;;;;;;5092790;28;20028;-62
2021/12/23 01:36:17;;;;;;;7.03;4.38;;;;;;;;;;5093027;28;20039;-62
2021/12/23 01:38:43;;;;;;;7.32;4.57;;;;;;;;;;5092703;28;20051;-62
2021/12/23 01:41:08;;;;;;;8.18;4.60;;;;;;;;;;5092486;28;20024;-61
2021/12/23 01:43:34;;;;;;;5.60;3.80;;;;;;;;;;5093260;28;20069;-62
2021/12/23 01:45:59;;;;;;;7.07;4.20;;;;;;;;;;5092701;28;20085;-61
2021/12/23 01:48:25;;;;;;;5.60;4.13;;;;;;;;;;5092192;28;20107;-62
2021/12/23 01:50:50;;;;;;;5.40;4.22;;;;;;;;;;5092527;28;20441;-61
2021/12/23 01:53:15;;;;;;;7.97;4.70;;;;;;;;;;5092409;28;20016;-61
2021/12/23 01:55:42;;;;;;;7.32;4.65;;;;;;;;;;5093112;28;20539;-62
2021/12/23 01:58:08;;;;;;;8.43;4.57;;;;;;;;;;5092239;28;20032;-62
2021/12/23 02:00:35;;;;;;;6.20;3.88;;;;;;;;;;5071990;28;20048;-62
2021/12/23 02:03:02;;;;;;;5.05;3.88;;;;;;;;;;5072423;28;20111;-63
2021/12/23 02:05:27;;;;;;;6.03;3.63;;;;;;;;;;5072601;28;20167;-62
2021/12/23 02:07:52;;;;;;;7.15;3.72;;;;;;;;;;5076513;28;20530;-62
2021/12/23 02:10:18;;;;;;;7.63;4.40;;;;;;;;;;5092146;28;20377;-62
2021/12/23 02:12:45;;;;;;;6.25;3.67;;;;;;;;;;5092346;28;20047;-62
2021/12/23 02:15:11;;;;;;;6.85;4.90;;;;;;;;;;5092361;28;20431;-62
2021/12/23 02:17:36;;;;;;;7.82;4.32;;;;;;;;;;5092360;28;20120;-62
2021/12/23 02:20:03;;;;;;;5.15;3.92;;;;;;;;;;5092603;28;20039;-62
2021/12/23 02:22:28;;;;;;;6.32;4.07;;;;;;;;;;5094456;28;20039;-63
2021/12/23 02:24:53;;;;;;;6.97;4.03;;;;;;;;;;5096720;28;20040;-63
2021/12/23 02:27:19;;;;;;;7.75;4.90;;;;;;;;;;5096440;28;20130;-63
2021/12/23 02:29:44;;;;;;;5.88;4.70;;;;;;;;;;5096153;28;20119;-63
2021/12/23 02:32:09;;;;;;;6.20;4.90;;;;;;;;;;5096052;28;20020;-63
2021/12/23 02:34:34;;;;;;;6.20;4.40;;;;;;;;;;5096442;28;20032;-63
2021/12/23 02:37:00;;;;;;;6.70;4.70;;;;;;;;;;5096335;28;20024;-63
2021/12/23 02:39:26;;;;;;;6.95;4.50;;;;;;;;;;5095934;28;20120;-63
2021/12/23 02:41:52;;;;;;;8.93;5.53;;;;;;;;;;5096203;28;20054;-63
2021/12/23 02:44:17;;;;;;;8.57;4.93;;;;;;;;;;5096384;28;20052;-63
2021/12/23 02:46:43;;;;;;;8.07;4.85;;;;;;;;;;5096789;28;20028;-61
2021/12/23 02:49:08;;;;;;;7.93;4.80;;;;;;;;;;5095647;28;20040;-62
2021/12/23 02:51:33;;;;;;;6.18;3.75;;;;;;;;;;5095857;28;20043;-62
2021/12/23 02:53:59;;;;;;;5.80;4.00;;;;;;;;;;5096652;28;20101;-63
2021/12/23 02:56:24;;;;;;;7.20;4.35;;;;;;;;;;5080625;28;20043;-63
2021/12/23 02:58:49;;;;;;;5.00;3.60;;;;;;;;;;5096285;28;20046;-63
2021/12/23 03:01:16;;;;;;;6.70;4.32;;;;;;;;;;5095376;28;20560;-63
2021/12/23 03:03:42;;;;;;;8.20;3.85;;;;;;;;;;5095886;28;20039;-62
2021/12/23 03:06:09;;;;;;;7.28;4.80;;;;;;;;;;5095896;28;20032;-61
2021/12/23 03:08:38;;;;;;;6.55;4.43;;;;;;;;;;5085539;28;20048;-61
2021/12/23 03:11:04;;;;;;;7.10;4.55;;;;;;;;;;5075453;28;20039;-62
2021/12/23 03:13:30;;;;;;;7.22;4.85;;;;;;;;;;5075033;28;20413;-61
2021/12/23 03:15:55;;;;;;;9.52;5.45;;;;;;;;;;5075331;28;20075;-61
2021/12/23 03:18:20;;;;;;;5.88;4.80;;;;;;;;;;5075248;28;20027;-63
2021/12/23 03:20:45;;;;;;;9.40;4.38;;;;;;;;;;5074858;28;20032;-61
2021/12/23 03:23:11;;;;;;;5.57;4.50;;;;;;;;;;5075049;28;20024;-62
2021/12/23 03:25:36;;;;;;;7.00;4.88;;;;;;;;;;5075609;28;20032;-62
2021/12/23 03:28:02;;;;;;;6.35;4.60;;;;;;;;;;5075028;28;20128;-62
2021/12/23 03:30:27;;;;;;;7.28;4.72;;;;;;;;;;5074664;28;20081;-62
2021/12/23 03:32:52;;;;;;;9.30;4.95;;;;;;;;;;5074449;28;20037;-64
2021/12/23 03:35:17;;;;;;;6.57;4.95;;;;;;;;;;5090837;28;20370;-62
2021/12/23 03:37:43;;;;;;;6.20;4.65;;;;;;;;;;5075441;28;20028;-62
2021/12/23 03:40:09;;;;;;;6.32;4.20;;;;;;;;;;5089939;28;20124;-62
2021/12/23 03:42:34;;;;;;;4.47;3.78;;;;;;;;;;5074626;28;20055;-62
2021/12/23 03:44:59;;;;;;;7.32;4.63;;;;;;;;;;5074751;28;20111;-61
2021/12/23 03:47:24;;;;;;;7.35;4.82;;;;;;;;;;5074797;28;20086;-61
2021/12/23 03:49:50;;;;;;;5.88;3.58;;;;;;;;;;5075056;28;20090;-62
2021/12/23 03:52:15;;;;;;;5.13;3.88;;;;;;;;;;5074163;28;20423;-62
2021/12/23 03:54:40;;;;;;;6.55;3.78;;;;;;;;;;5093287;28;20032;-62
2021/12/23 03:57:06;;;;;;;5.32;4.25;;;;;;;;;;5094661;28;20391;-62
2021/12/23 03:59:31;;;;;;;5.63;4.22;;;;;;;;;;5094408;28;20528;-62
2021/12/23 04:01:56;;;;;;;8.43;4.18;;;;;;;;;;5095154;28;20028;-63
2021/12/23 04:04:22;;;;;;;4.70;3.72;;;;;;;;;;5094582;28;20504;-62
2021/12/23 04:06:47;;;;;;;7.75;4.63;;;;;;;;;;5094781;28;20492;-62
2021/12/23 04:09:12;;;;;;;8.60;4.30;;;;;;;;;;5079102;28;20044;-62
2021/12/23 04:11:37;;;;;;;4.50;4.03;;;;;;;;;;5074010;28;20036;-62
2021/12/23 04:14:03;;;;;;;5.30;4.22;;;;;;;;;;5074695;28;20044;-62
2021/12/23 04:16:28;;;;;;;7.35;4.45;;;;;;;;;;5074168;28;20058;-64
2021/12/23 04:18:54;;;;;;;5.70;3.75;;;;;;;;;;5074150;28;20035;-62
2021/12/23 04:21:20;;;;;;;9.20;4.95;;;;;;;;;;5073778;28;20024;-62
2021/12/23 04:23:45;;;;;;;6.25;4.20;;;;;;;;;;5073740;28;20119;-62
2021/12/23 04:26:10;;;;;;;9.35;4.97;;;;;;;;;;5074392;28;20090;-62
2021/12/23 04:28:48;;;;;;;6.55;4.60;;;;;;;;;;5074308;28;20052;-62
2021/12/23 04:31:14;;;;;;;7.28;5.20;;;;;;;;;;5073550;28;20056;-62
2021/12/23 04:33:40;;;;;;;8.07;4.50;;;;;;;;;;5073858;28;20056;-61
2021/12/23 04:36:07;;;;;;;5.13;3.95;;;;;;;;;;5073849;28;20064;-61
2021/12/23 04:38:33;;;;;;;7.38;5.05;;;;;;;;;;5073899;28;20107;-63
2021/12/23 04:40:58;;;;;;;7.20;4.63;;;;;;;;;;5073739;28;20100;-62
2021/12/23 04:43:23;;;;;;;6.97;4.47;;;;;;;;;;5073233;28;20059;-62
2021/12/23 04:45:48;;;;;;;6.55;4.35;;;;;;;;;;5072718;28;20040;-62
2021/12/23 04:48:13;;;;;;;6.20;4.32;;;;;;;;;;5073485;28;20049;-62
2021/12/23 04:50:39;;;;;;;7.72;4.78;;;;;;;;;;5089919;28;20040;-63
2021/12/23 04:53:04;;;;;;;8.25;4.88;;;;;;;;;;5093765;28;20174;-63
2021/12/23 04:55:30;;;;;;;8.02;4.97;;;;;;;;;;5093487;28;20031;-62
2021/12/23 04:57:56;;;;;;;6.15;4.47;;;;;;;;;;5108906;28;20113;-63
2021/12/23 05:00:21;;;;;;;8.10;4.50;;;;;;;;;;5093375;28;20074;-62
2021/12/23 05:02:46;;;;;;;7.35;4.80;;;;;;;;;;5090122;28;20028;-62
2021/12/23 05:05:12;;;;;;;6.55;4.57;;;;;;;;;;5093106;28;20464;-61
2021/12/23 05:07:37;;;;;;;5.90;4.50;;;;;;;;;;5093203;28;20040;-62
2021/12/23 05:10:04;;;;;;;7.57;5.10;;;;;;;;;;5092749;28;20032;-62
2021/12/23 05:12:29;;;;;;;6.55;4.60;;;;;;;;;;5092775;28;20035;-62
2021/12/23 05:14:54;;;;;;;6.30;4.25;;;;;;;;;;5092814;28;20032;-62
2021/12/23 05:17:20;;;;;;;9.02;4.80;;;;;;;;;;5093338;28;20441;-62
2021/12/23 05:19:45;;;;;;;7.20;4.30;;;;;;;;;;5093220;28;20104;-62
2021/12/23 05:22:10;;;;;;;8.40;4.07;;;;;;;;;;5092776;28;20541;-63
2021/12/23 05:24:35;;;;;;;5.30;4.05;;;;;;;;;;5092967;28;20063;-63
2021/12/23 05:27:02;;;;;;;8.55;4.25;;;;;;;;;;5093178;28;20044;-63
2021/12/23 05:29:27;;;;;;;5.18;3.72;;;;;;;;;;5092689;28;20101;-63
2021/12/23 05:31:52;;;;;;;5.07;4.00;;;;;;;;;;5093416;28;20031;-63
2021/12/23 05:34:17;;;;;;;4.57;3.35;;;;;;;;;;5092808;28;20028;-64
2021/12/23 05:36:43;;;;;;;5.63;3.38;;;;;;;;;;5092850;28;20036;-64
2021/12/23 05:39:08;;;;;;;5.30;3.28;;;;;;;;;;5092823;28;20032;-64
2021/12/23 05:41:33;;;;;;;4.18;2.95;;;;;;;;;;5092532;28;20039;-63
2021/12/23 05:43:59;;;;;;;5.05;3.63;;;;;;;;;;5085889;28;20491;-63
2021/12/23 05:46:24;;;;;;;3.97;3.30;;;;;;;;;;5084949;28;20500;-64
2021/12/23 05:48:49;;;;;;;6.55;3.65;;;;;;;;;;5093063;28;20033;-64
2021/12/23 05:51:15;;;;;;;4.93;3.30;;;;;;;;;;5092640;28;20085;-64
2021/12/23 05:53:40;;;;;;;4.05;3.05;;;;;;;;;;5092610;28;20027;-64
2021/12/23 05:56:05;;;;;;;6.25;3.90;;;;;;;;;;5092776;28;20024;-64
2021/12/23 05:58:30;;;;;;;3.70;2.97;;;;;;;;;;5092830;28;20040;-64
2021/12/23 06:00:56;;;;;;;6.20;3.28;;;;;;;;;;5092537;28;20376;-63
2021/12/23 06:03:21;;;;;;;7.00;2.80;;;;;;;;;;5092336;28;20028;-64
2021/12/23 06:05:46;;;;;;;4.65;2.90;;;;;;;;;;5092533;28;20929;-63
2021/12/23 06:08:11;;;;;;;3.85;2.88;;;;;;;;;;5085628;28;20020;-65
2021/12/23 06:10:37;;;;;;;4.30;2.85;;;;;;;;;;5072422;28;20041;-63
2021/12/23 06:13:02;;;;;;;4.80;3.13;;;;;;;;;;5072140;28;20090;-64
2021/12/23 06:15:27;;;;;;;5.38;3.30;;;;;;;;;;5072356;28;20412;-63
2021/12/23 06:17:53;;;;;;;4.10;2.60;;;;;;;;;;5072237;28;20561;-64
2021/12/23 06:20:18;;;;;;;4.53;2.60;;;;;;;;;;5072168;28;20037;-63
2021/12/23 06:22:43;;;;;;;4.97;2.65;;;;;;;;;;5072527;28;20021;-63
2021/12/23 06:25:09;;;;;;;2.92;2.47;;;;;;;;;;5086462;28;20042;-64
2021/12/23 06:27:35;;;;;;;4.63;2.97;;;;;;;;;;5103590;28;20027;-64
2021/12/23 06:30:00;;;;;;;4.53;2.70;;;;;;;;;;5103030;28;20019;-64
2021/12/23 06:32:25;;;;;;;2.47;1.92;;;;;;;;;;5100669;28;20103;-64
2021/12/23 06:34:51;;;;;;;4.97;2.55;;;;;;;;;;5099420;28;20028;-64
2021/12/23 06:37:16;;;;;;;2.65;2.22;;;;;;;;;;5100896;28;20036;-64
2021/12/23 06:39:41;;;;;;;4.40;2.30;;;;;;;;;;5106821;28;20070;-63
2021/12/23 06:42:07;;;;;;;4.70;2.45;;;;;;;;;;5079422;28;20051;-64
2021/12/23 06:44:32;;;;;;;5.85;3.00;;;;;;;;;;5091839;28;20059;-64
2021/12/23 06:46:57;;;;;;;12.13;3.33;;;;;;;;;;5095206;28;20425;-64
2021/12/23 06:49:23;;;;;;;3.97;2.22;;;;;;;;;;5101861;28;20032;-64
2021/12/23 06:51:48;;;;;;;5.95;2.58;;;;;;;;;;5100501;28;20023;-65
2021/12/23 06:54:14;;;;;;;3.75;2.65;;;;;;;;;;5100877;28;20058;-65
2021/12/23 06:56:39;;;;;;;4.55;2.28;;;;;;;;;;5112334;28;20055;-65
2021/12/23 06:59:04;;;;;;;4.53;3.10;;;;;;;;;;5112913;28;20020;-64
2021/12/23 07:01:30;;;;;;;4.07;2.75;;;;;;;;;;5112456;28;20100;-65
2021/12/23 07:04:07;;;;;;;4.25;2.97;;;;;;;;;;5112034;28;20036;-64
2021/12/23 07:06:34;;;;;;;3.53;2.28;;;;;;;;;;5103640;28;20043;-65
2021/12/23 07:09:01;;;;;;;6.30;3.13;;;;;;;;;;5105222;28;20051;-64
2021/12/23 07:11:27;;;;;;;4.18;2.83;;;;;;;;;;5104630;28;20012;-64
2021/12/23 07:13:52;;;;;;;4.15;2.90;;;;;;;;;;5106426;28;20063;-64
2021/12/23 07:16:17;;;;;;;5.05;3.08;;;;;;;;;;5111010;28;20050;-65
2021/12/23 07:18:42;;;;;;;5.55;2.70;;;;;;;;;;5106430;28;20035;-65
2021/12/23 07:21:08;;;;;;;5.05;2.97;;;;;;;;;;5095150;28;20035;-65
2021/12/23 07:23:33;;;;;;;4.32;3.65;;;;;;;;;;5095030;28;20024;-65
2021/12/23 07:25:59;;;;;;;3.92;3.03;;;;;;;;;;5099401;28;20103;-64
2021/12/23 07:28:24;;;;;;;4.60;3.00;;;;;;;;;;5095399;28;20072;-64
2021/12/23 07:30:49;;;;;;;4.32;2.75;;;;;;;;;;5098201;28;20059;-65
2021/12/23 07:33:14;;;;;;;4.35;3.10;;;;;;;;;;5087356;28;20058;-64
2021/12/23 07:35:40;;;;;;;9.50;5.45;;;;;;;;;;5092198;28;20045;-65
2021/12/23 07:38:05;;;;;;;3.97;2.92;;;;;;;;;;5097779;28;20089;-65
2021/12/23 07:40:31;;;;;;;7.03;4.28;;;;;;;;;;5095432;28;20507;-65
2021/12/23 07:43:07;;;;;;;4.53;2.90;;;;;;;;;;5099236;28;20043;-65
2021/12/23 07:45:33;;;;;;;4.57;3.60;;;;;;;;;;5094502;28;20123;-67
2021/12/23 07:47:58;;;;;;;5.07;3.40;;;;;;;;;;5104605;28;20130;-66
2021/12/23 07:50:23;;;;;;;7.13;3.90;;;;;;;;;;5105601;28;20020;-67
2021/12/23 07:52:49;;;;;;;10.30;3.60;;;;;;;;;;5094597;28;20020;-66
2021/12/23 07:55:14;;;;;;;5.88;3.80;;;;;;;;;;5098229;28;20032;-66
2021/12/23 07:57:39;;;;;;;5.65;3.22;;;;;;;;;;5106885;28;20036;-66
2021/12/23 08:00:05;;;;;;;5.57;4.15;;;;;;;;;;5101021;28;20028;-65
2021/12/23 08:02:30;;;;;;;5.30;3.45;;;;;;;;;;5095648;28;20039;-66
2021/12/23 08:04:56;;;;;;;4.55;3.60;;;;;;;;;;5092219;28;20048;-65
2021/12/23 08:07:21;;;;;;;8.00;4.13;;;;;;;;;;5094677;28;20122;-66
2021/12/23 08:09:47;;;;;;;9.75;4.60;;;;;;;;;;5094527;28;20054;-67
2021/12/23 08:12:12;;;;;;;7.05;3.13;;;;;;;;;;5095343;28;20127;-65
2021/12/23 08:14:37;;;;;;;6.70;4.30;;;;;;;;;;5095726;28;20098;-66
2021/12/23 08:17:04;;;;;;;8.13;4.35;;;;;;;;;;5080110;28;20428;-66
2021/12/23 08:19:29;;;;;;;5.60;3.92;;;;;;;;;;5098327;28;20081;-66
2021/12/23 08:21:54;;;;;;;5.75;3.92;;;;;;;;;;5090265;28;20062;-67
2021/12/23 08:24:19;;;;;;;9.02;5.28;;;;;;;;;;5089941;28;20081;-66
2021/12/23 08:26:51;;;;;;;5.25;3.95;;;;;;;;;;5099463;28;20048;-64
2021/12/23 08:29:18;;;;;;;10.40;6.72;;;;;;;;;;5099782;28;20024;-65
2021/12/23 08:31:44;;;;;;;10.20;5.55;;;;;;;;;;5089732;28;20842;-67
2021/12/23 08:34:09;;;;;;;7.00;4.82;;;;;;;;;;5089524;28;20123;-68
2021/12/23 08:36:35;;;;;;;6.75;5.00;;;;;;;;;;5094688;28;20028;-66
2021/12/23 08:39:02;;;;;;;8.57;4.80;;;;;;;;;;5089555;28;20024;-66
2021/12/23 08:41:28;;;;;;;6.78;5.35;;;;;;;;;;5089956;28;20123;-65
2021/12/23 08:43:53;;;;;;;8.18;5.03;;;;;;;;;;5094761;28;20103;-66
2021/12/23 08:46:19;;;;;;;7.25;5.32;;;;;;;;;;5089612;28;20035;-66
2021/12/23 08:48:44;;;;;;;7.88;5.80;;;;;;;;;;5094159;28;20087;-65
2021/12/23 08:51:09;;;;;;;8.35;5.45;;;;;;;;;;5095546;28;20020;-64
2021/12/23 08:53:34;;;;;;;8.15;4.65;;;;;;;;;;5093887;28;20028;-65
2021/12/23 08:56:00;;;;;;;8.07;5.70;;;;;;;;;;5103201;28;20020;-65
2021/12/23 08:58:25;;;;;;;7.22;5.38;;;;;;;;;;5090561;28;20024;-67
2021/12/23 09:00:50;;;;;;;6.30;4.65;;;;;;;;;;5070368;28;20459;-64
2021/12/23 09:03:16;;;;;;;7.78;4.97;;;;;;;;;;5084286;28;20738;-64
2021/12/23 09:05:41;;;;;;;6.38;5.00;;;;;;;;;;5093848;28;20491;-65
2021/12/23 09:08:07;;;;;;;9.02;6.00;;;;;;;;;;5092464;28;20165;-65
2021/12/23 09:10:33;;;;;;;11.90;6.43;;;;;;;;;;5070477;28;20059;-65
2021/12/23 09:12:58;;;;;;;7.22;5.60;;;;;;;;;;5086443;28;20025;-65
2021/12/23 09:15:23;;;;;;;8.32;5.45;;;;;;;;;;5088841;28;20036;-65
2021/12/23 09:17:49;;;;;;;8.15;5.20;;;;;;;;;;5094494;28;20028;-65
2021/12/23 09:20:15;;;;;;;8.82;5.25;;;;;;;;;;5089668;28;20039;-65
2021/12/23 09:22:41;;;;;;;6.90;5.13;;;;;;;;;;5089260;28;20082;-65
2021/12/23 09:25:11;;;;;;;9.90;6.68;;;;;;;;;;5088465;28;20043;-64
2021/12/23 09:27:54;;;;;;;9.90;5.75;;;;;;;;;;5088011;28;20457;-64
2021/12/23 09:33:04;;;;;;;9.13;6.63;;;;;;;;;;5086455;28;20073;-65
2021/12/23 09:35:30;;;;;;;9.02;6.97;;;;;;;;;;5088792;28;20111;-65
2021/12/23 09:37:56;;;;;;;10.10;7.53;;;;;;;;;;5092924;28;20022;-64
2021/12/23 09:40:23;;;;;;;10.93;5.88;;;;;;;;;;5089468;28;20024;-64
2021/12/23 09:42:49;;;;;;;9.05;6.50;;;;;;;;;;5089312;28;20039;-70
2021/12/23 09:45:17;;;;;;;10.45;6.20;;;;;;;;;;5089648;28;20051;-57
2021/12/23 09:47:43;;;;;;;9.30;6.65;;;;;;;;;;5090210;28;20097;-57
2021/12/23 09:50:11;;;;;;;11.65;7.38;;;;;;;;;;5084168;28;20031;-58
2021/12/23 09:52:40;;;;;;;13.93;7.70;;;;;;;;;;5092672;28;20763;-58
2021/12/23 09:55:05;;;;;;;9.82;6.90;;;;;;;;;;5092588;28;20032;-58
2021/12/23 09:57:31;;;;;;;11.70;7.22;;;;;;;;;;5093225;28;20059;-58
2021/12/23 09:59:56;;;;;;;10.95;7.28;;;;;;;;;;5090174;28;20097;-57
2021/12/23 10:02:21;;;;;;;9.45;7.18;;;;;;;;;;5090437;28;20027;-57
2021/12/23 10:04:47;;;;;;;11.20;7.88;;;;;;;;;;5088487;28;20028;-57
2021/12/23 10:07:12;;;;;;;14.20;8.35;;;;;;;;;;5087100;28;20035;-56
2021/12/23 10:09:48;;;;;;;11.93;7.88;;;;;;;;;;5091445;28;20040;-57
2021/12/23 10:37:14;;;;;;;13.27;8.93;;;;;;;;;;5091498;28;20036;-56
2021/12/23 10:39:40;;;;;;;13.23;8.48;;;;;;;;;;5088632;28;20028;-57
2021/12/23 10:42:10;;;;;;;12.73;8.75;;;;;;;;;;5093645;28;20043;-58
2021/12/23 10:44:35;;;;;;;15.73;8.77;;;;;;;;;;5091814;28;20494;-58
2021/12/23 10:47:00;;;;;;;14.93;8.77;;;;;;;;;;5101020;28;20019;-58
2021/12/23 10:49:38;;;;;;;14.52;8.88;;;;;;;;;;5095014;28;20025;-58
2021/12/23 10:52:08;;;;;;;12.50;8.32;;;;;;;;;;5092588;28;20128;-57
2021/12/23 11:00:10;;;;;;;17.00;8.57;;;;;;;;;;5033150;28;20037;-58
2021/12/23 11:02:37;;;;;;;13.45;7.82;;;;;;;;;;5033353;28;20508;-58
2021/12/23 11:05:21;;;;;;;12.93;8.55;;;;;;;;;;5035197;28;20823;-58
2021/12/23 11:08:01;;;;;;;12.68;8.18;;;;;;;;;;5032853;28;20053;-57
2021/12/23 11:43:23;;;;;;;13.63;8.43;;;;;;;;;;5050510;28;20036;-57
2021/12/23 11:45:48;;;;;;;13.55;8.30;;;;;;;;;;5049994;28;20126;-57
2021/12/23 11:48:14;;;;;;;15.73;8.85;;;;;;;;;;5052798;28;20477;-57
2021/12/23 11:50:54;;;;;;;14.77;8.40;;;;;;;;;;5058729;28;20048;-57
2021/12/23 11:53:26;;;;;;;14.02;7.65;;;;;;;;;;5057810;28;20366;-57
2021/12/23 11:55:52;;;;;;;14.40;9.07;;;;;;;;;;5055228;28;20485;-57
2021/12/23 11:58:21;;;;;;;15.07;8.10;;;;;;;;;;5055936;28;20091;-57
2021/12/23 12:00:59;;;;;;;10.80;7.95;;;;;;;;;;5051623;28;20086;-57
2021/12/23 12:03:24;;;;;;;10.95;8.55;;;;;;;;;;5038595;28;20037;-57
2021/12/23 12:05:51;;;;;;;12.93;8.40;;;;;;;;;;5056279;28;20074;-57
2021/12/23 12:08:23;;;;;;;14.27;8.75;;;;;;;;;;5058144;28;20167;-57
2021/12/23 12:10:48;;;;;;;12.70;8.13;;;;;;;;;;5053952;28;20132;-57
2021/12/23 12:13:14;;;;;;;16.63;7.38;;;;;;;;;;5053853;28;20549;-57
2021/12/23 12:15:41;;;;;;;12.65;7.82;;;;;;;;;;5060285;28;20032;-56
2021/12/23 12:18:11;;;;;;;14.93;8.93;;;;;;;;;;5096797;28;20032;-57
2021/12/23 12:20:48;;;;;;;12.52;7.43;;;;;;;;;;5107311;27;20040;-57
2021/12/23 12:23:19;;;;;;;10.88;7.45;;;;;;;;;;5099987;28;20416;-55
2021/12/23 12:25:53;;;;;;;;;;;;;;;;;;5091254;28;20032;-56
2021/12/23 12:28:22;;;;;;;9.73;6.30;;;;;;;;;;5091249;28;19922;-56
2021/12/23 12:30:53;;;;;;;12.40;7.50;;;;;;;;;;5095684;28;20488;-56
2021/12/23 12:33:18;;;;;;;10.73;5.88;;;;;;;;;;5092446;28;20044;-57
2021/12/23 12:35:48;;;;;;;12.10;7.22;;;;;;;;;;5097315;28;20036;-56
2021/12/23 12:38:21;;;;;;;9.30;6.90;;;;;;;;;;5096289;28;20028;-57
2021/12/23 12:41:05;;;;;;;9.60;6.55;;;;;;;;;;5099034;28;20103;-57
2021/12/23 12:43:33;;;;;;;11.43;6.82;;;;;;;;;;5093634;28;20047;-57
2021/12/23 12:45:58;;;;;;;10.70;6.65;;;;;;;;;;5096899;28;20036;-57
2021/12/23 12:48:43;;;;;;;11.70;7.85;;;;;;;;;;5099443;28;20044;-58
2021/12/23 12:51:17;;;;;;;11.35;7.32;;;;;;;;;;5099433;28;20016;-58
2021/12/23 12:53:50;;;;;;;12.73;7.50;;;;;;;;;;5092102;28;20143;-58
2021/12/23 12:56:20;;;;;;;11.23;7.30;;;;;;;;;;5093330;28;20123;-58
2021/12/23 12:58:50;;;;;;;11.97;7.03;;;;;;;;;;5090245;28;20063;-59
2021/12/23 13:01:16;;;;;;;10.77;7.38;;;;;;;;;;5091773;28;20437;-56
2021/12/23 13:03:51;;;;;;;10.93;7.07;;;;;;;;;;5095810;28;20518;-56
2021/12/23 13:06:18;;;;;;;9.65;6.68;;;;;;;;;;5097103;28;20027;-58
2021/12/23 13:08:44;;;;;;;10.20;6.75;;;;;;;;;;5075588;28;20044;-57
2021/12/23 13:11:12;;;;;;;11.40;7.15;;;;;;;;;;5092152;28;20468;-57
2021/12/23 13:13:42;;;;;;;10.98;6.05;;;;;;;;;;5095162;28;20028;-58
2021/12/23 13:16:07;;;;;;;;;;;;;;;;;;5078004;28;20123;-58
2021/12/23 13:18:33;;;;;;;10.77;7.47;;;;;;;;;;5092867;28;19984;-57
2021/12/23 13:21:04;;;;;;;11.80;7.72;;;;;;;;;;5090108;28;20395;-57
2021/12/23 13:23:36;;;;;;;12.07;6.38;;;;;;;;;;5084674;28;20032;-58
2021/12/23 13:26:03;;;;;;;9.40;5.95;;;;;;;;;;5089877;28;20392;-56
2021/12/23 13:28:36;;;;;;;10.77;6.78;;;;;;;;;;5089571;28;20020;-56
2021/12/23 13:31:04;;;;;;;12.07;7.55;;;;;;;;;;5089663;28;20036;-54
2021/12/23 13:33:30;;;;;;;10.02;6.63;;;;;;;;;;5092342;28;20028;-58
2021/12/23 13:35:56;;;;;;;12.57;7.95;;;;;;;;;;5094355;28;20127;-57
2021/12/23 13:38:31;;;;;;;12.70;6.45;;;;;;;;;;5096789;28;20052;-56
2021/12/23 13:41:09;;;;;;;13.63;6.80;;;;;;;;;;5091974;28;20089;-56
2021/12/23 13:43:34;;;;;;;12.60;6.90;;;;;;;;;;5089361;28;20532;-56
2021/12/23 13:46:05;;;;;;;10.48;6.18;;;;;;;;;;5090108;28;20119;-57
2021/12/23 13:48:30;;;;;;;9.68;6.13;;;;;;;;;;5095810;28;20036;-57
2021/12/23 13:50:56;;;;;;;8.82;6.03;;;;;;;;;;5089483;28;20349;-55
2021/12/23 13:53:22;;;;;;;11.73;7.72;;;;;;;;;;5092068;28;20465;-57
2021/12/23 13:55:50;;;;;;;13.32;7.63;;;;;;;;;;5094817;28;20094;-58
2021/12/23 13:58:18;;;;;;;11.45;7.22;;;;;;;;;;5092730;28;20495;-57
2021/12/23 14:00:43;;;;;;;11.45;7.15;;;;;;;;;;5097488;28;20039;-59
2021/12/23 14:03:12;;;;;;;8.27;6.32;;;;;;;;;;5092164;28;20024;-58
2021/12/23 14:05:40;;;;;;;12.80;6.47;;;;;;;;;;5094673;28;20522;-58
2021/12/23 14:08:06;;;;;;;9.77;6.32;;;;;;;;;;5092008;28;20067;-59
2021/12/23 14:10:32;;;;;;;9.02;6.05;;;;;;;;;;5095923;28;20062;-57
2021/12/23 14:12:58;;;;;;;16.02;7.18;;;;;;;;;;5091455;28;20024;-57
2021/12/23 14:15:24;;;;;;;11.00;6.97;;;;;;;;;;5088530;28;20048;-59
2021/12/23 14:17:53;;;;;;;10.75;6.90;;;;;;;;;;5097554;28;20043;-58
2021/12/23 14:23:13;;;;;;;11.43;7.30;;;;;;;;;;5098553;28;20054;-58
2021/12/23 14:25:41;;;;;;;12.70;8.02;;;;;;;;;;5104268;28;20377;-57
2021/12/23 14:28:06;;;;;;;10.65;7.15;;;;;;;;;;5111120;28;20035;-58
2021/12/23 14:30:40;;;;;;;11.07;6.95;;;;;;;;;;5100032;28;20530;-59
2021/12/23 14:33:06;;;;;;;9.48;6.93;;;;;;;;;;5075666;28;20021;-57
2021/12/23 14:35:31;;;;;;;10.80;7.32;;;;;;;;;;5103685;28;20028;-58
2021/12/23 14:38:00;;;;;;;11.48;6.55;;;;;;;;;;5119057;27;20632;-59
2021/12/23 14:40:25;;;;;;;15.32;7.43;;;;;;;;;;5100601;28;20422;-58
2021/12/23 14:43:00;;;;;;;9.88;7.07;;;;;;;;;;5096657;28;20036;-59
2021/12/23 14:45:26;;;;;;;13.98;7.43;;;;;;;;;;5103658;28;20379;-58
2021/12/23 14:47:58;;;;;;;10.68;6.80;;;;;;;;;;5105354;28;20035;-58
2021/12/23 14:50:25;;;;;;;11.88;7.35;;;;;;;;;;5095188;28;20023;-58
2021/12/23 14:52:53;;;;;;;12.85;7.82;;;;;;;;;;5099090;28;20131;-58
2021/12/23 14:55:18;;;;;;;9.40;6.32;;;;;;;;;;5106408;28;20071;-58
2021/12/23 14:57:50;;;;;;;10.55;6.68;;;;;;;;;;5103662;28;20426;-58
2021/12/23 15:00:27;;;;;;;12.27;7.68;;;;;;;;;;5099496;28;20031;-58
2021/12/23 15:02:59;;;;;;;8.70;6.25;;;;;;;;;;5097680;28;20028;-58
2021/12/23 15:05:25;;;;;;;9.93;6.40;;;;;;;;;;5095958;28;20041;-57
2021/12/23 15:07:56;;;;;;;12.55;7.10;;;;;;;;;;5085065;28;20024;-56
2021/12/23 15:10:25;;;;;;;13.98;7.45;;;;;;;;;;5103174;28;20583;-57
2021/12/23 15:12:50;;;;;;;13.35;8.30;;;;;;;;;;5096074;28;20029;-56
2021/12/23 15:15:16;;;;;;;11.95;7.80;;;;;;;;;;5098899;28;20127;-57
2021/12/23 15:17:52;;;;;;;11.18;7.18;;;;;;;;;;5092259;28;20032;-57
2021/12/23 15:20:19;;;;;;;13.68;8.60;;;;;;;;;;5091931;28;20051;-56
2021/12/23 15:22:45;;;;;;;13.45;7.15;;;;;;;;;;5093027;28;20055;-56
2021/12/23 15:25:12;;;;;;;12.70;7.40;;;;;;;;;;5092171;28;20086;-57
2021/12/23 15:27:38;;;;;;;8.90;6.07;;;;;;;;;;5096475;28;20040;-57
2021/12/23 15:30:29;;;;;;;19.08;7.05;;;;;;;;;;5093901;28;20047;-59
2021/12/23 15:32:54;;;;;;;13.25;7.05;;;;;;;;;;5090877;28;20028;-59
2021/12/23 15:35:20;;;;;;;13.02;7.95;;;;;;;;;;5090315;28;20036;-59
2021/12/23 15:37:47;;;;;;;12.02;6.93;;;;;;;;;;5092195;28;20016;-59
2021/12/23 15:40:23;;;;;;;13.82;7.38;;;;;;;;;;5091302;28;20040;-59
2021/12/23 15:42:50;;;;;;;11.05;7.15;;;;;;;;;;5090894;28;20051;-58
2021/12/23 15:45:15;;;;;;;10.32;6.63;;;;;;;;;;5089518;28;20040;-60
2021/12/23 15:47:40;;;;;;;14.38;7.63;;;;;;;;;;5091800;28;20043;-58
2021/12/23 15:50:07;;;;;;;11.75;7.50;;;;;;;;;;5091518;28;20036;-58
2021/12/23 15:52:32;;;;;;;13.30;7.97;;;;;;;;;;5091161;28;20370;-58